createdAt,value
2023-02-01T00:01:09.063Z,57.27
2023-02-01T00:03:37.588Z,57.06
2023-02-01T00:06:06.205Z,57.00
2023-02-01T00:08:35.751Z,56.98
2023-02-01T00:11:12.558Z,56.82
2023-02-01T00:13:42.707Z,56.76
2023-02-01T00:16:15.808Z,56.64
2023-02-01T00:18:45.923Z,56.64
2023-02-01T00:21:20.265Z,56.63
2023-02-01T00:23:49.625Z,56.58
2023-02-01T00:26:39.179Z,56.55
2023-02-01T00:29:12.451Z,56.50
2023-02-01T00:31:43.055Z,56.35
2023-02-01T00:34:15.400Z,56.35
2023-02-01T00:36:45.153Z,56.24
2023-02-01T00:39:13.562Z,56.17
2023-02-01T00:41:42.425Z,55.96
2023-02-01T00:44:11.652Z,55.87
2023-02-01T00:46:40.664Z,55.58
2023-02-01T00:49:09.622Z,55.49
2023-02-01T00:51:37.929Z,55.20
2023-02-01T00:54:06.865Z,54.85
2023-02-01T00:56:35.141Z,54.91
2023-02-01T00:59:04.182Z,54.96
2023-02-01T01:01:32.468Z,55.03
2023-02-01T01:04:01.394Z,54.73
2023-02-01T01:06:35.098Z,54.73
2023-02-01T01:09:06.790Z,54.69
2023-02-01T01:11:38.133Z,54.63
2023-02-01T01:14:09.775Z,54.38
2023-02-01T01:16:39.508Z,54.49
2023-02-01T01:19:07.776Z,53.90
2023-02-01T01:21:36.453Z,54.01
2023-02-01T01:24:06.095Z,53.93
2023-02-01T01:26:34.291Z,53.69
2023-02-01T01:29:02.697Z,53.73
2023-02-01T01:31:31.921Z,53.80
2023-02-01T01:34:00.942Z,53.63
2023-02-01T01:36:30.444Z,53.37
2023-02-01T01:38:59.268Z,53.36
2023-02-01T01:41:31.918Z,53.29
2023-02-01T01:44:02.263Z,53.02
2023-02-01T01:46:33.532Z,52.78
2023-02-01T01:49:23.077Z,52.73
2023-02-01T01:52:02.475Z,52.42
2023-02-01T01:54:44.547Z,52.31
2023-02-01T01:57:18.463Z,52.35
2023-02-01T02:00:00.321Z,52.13
2023-02-01T02:02:29.306Z,51.76
2023-02-01T02:04:57.959Z,51.95
2023-02-01T02:10:10.304Z,51.86
2023-02-01T02:12:41.827Z,51.75
2023-02-01T02:15:13.858Z,51.60
2023-02-01T02:17:54.499Z,51.47
2023-02-01T02:20:53.936Z,51.51
2023-02-01T02:23:38.190Z,51.15
2023-02-01T02:26:35.810Z,51.09
2023-02-01T02:29:32.168Z,51.19
2023-02-01T02:32:32.548Z,51.07
2023-02-01T02:35:18.931Z,51.05
2023-02-01T02:38:00.970Z,51.09
2023-02-01T02:40:43.389Z,50.87
2023-02-01T02:43:24.430Z,50.81
2023-02-01T02:46:16.183Z,51.04
2023-02-01T02:48:50.982Z,51.36
2023-02-01T02:51:31.156Z,51.21
2023-02-01T02:54:22.812Z,51.32
2023-02-01T02:56:53.974Z,51.46
2023-02-01T02:59:25.841Z,51.42
2023-02-01T03:01:57.015Z,51.62
2023-02-01T03:04:26.132Z,51.67
2023-02-01T03:06:55.488Z,51.65
2023-02-01T03:09:32.080Z,51.57
2023-02-01T03:12:12.965Z,51.58
2023-02-01T03:14:46.021Z,51.66
2023-02-01T03:17:24.292Z,51.33
2023-02-01T03:19:55.121Z,51.31
2023-02-01T03:22:27.856Z,50.98
2023-02-01T03:25:02.755Z,50.95
2023-02-01T03:27:36.610Z,50.76
2023-02-01T03:30:27.659Z,51.00
2023-02-01T03:33:00.665Z,50.72
2023-02-01T03:35:41.673Z,50.97
2023-02-01T03:38:24.590Z,50.89
2023-02-01T03:40:59.515Z,51.06
2023-02-01T03:43:36.068Z,50.97
2023-02-01T03:46:10.299Z,50.76
2023-02-01T03:48:41.536Z,50.59
2023-02-01T03:51:12.055Z,50.47
2023-02-01T03:53:43.843Z,50.37
2023-02-01T03:56:12.158Z,50.69
2023-02-01T03:58:41.070Z,50.67
2023-02-01T04:01:09.311Z,50.62
2023-02-01T04:03:38.231Z,50.70
2023-02-01T04:06:06.717Z,50.53
2023-02-01T04:08:34.793Z,50.55
2023-02-01T04:11:03.326Z,50.66
2023-02-01T04:13:32.539Z,50.63
2023-02-01T04:16:00.693Z,50.88
2023-02-01T04:18:29.775Z,50.84
2023-02-01T04:20:59.401Z,50.64
2023-02-01T04:23:27.879Z,50.85
2023-02-01T04:26:01.136Z,50.83
2023-02-01T04:28:30.426Z,50.76
2023-02-01T04:30:58.902Z,50.65
2023-02-01T04:33:27.687Z,50.67
2023-02-01T04:35:55.829Z,50.56
2023-02-01T04:38:24.622Z,50.48
2023-02-01T04:40:52.873Z,50.59
2023-02-01T04:43:21.682Z,50.52
2023-02-01T04:45:50.987Z,50.53
2023-02-01T04:48:23.305Z,50.37
2023-02-01T04:50:52.970Z,50.44
2023-02-01T04:53:21.396Z,50.53
2023-02-01T04:55:50.251Z,50.51
2023-02-01T04:58:19.680Z,50.67
2023-02-01T05:00:49.162Z,50.68
2023-02-01T05:03:18.306Z,50.75
2023-02-01T05:05:49.110Z,50.85
2023-02-01T05:08:17.392Z,50.88
2023-02-01T05:10:46.753Z,50.91
2023-02-01T05:13:15.531Z,50.90
2023-02-01T05:15:43.824Z,50.98
2023-02-01T05:18:12.418Z,51.09
2023-02-01T05:20:40.649Z,51.07
2023-02-01T05:23:08.836Z,51.10
2023-02-01T05:25:38.832Z,51.12
2023-02-01T05:28:07.459Z,51.14
2023-02-01T05:30:35.757Z,51.13
2023-02-01T05:33:05.264Z,51.15
2023-02-01T05:35:34.717Z,50.97
2023-02-01T05:38:04.052Z,51.01
2023-02-01T05:40:32.200Z,50.97
2023-02-01T05:43:00.773Z,50.96
2023-02-01T05:45:29.529Z,50.82
2023-02-01T05:47:58.138Z,50.67
2023-02-01T05:50:26.559Z,50.75
2023-02-01T05:52:54.971Z,50.95
2023-02-01T05:55:23.299Z,51.05
2023-02-01T05:57:51.916Z,51.16
2023-02-01T06:00:22.317Z,51.24
2023-02-01T06:02:50.771Z,51.37
2023-02-01T06:05:21.164Z,51.33
2023-02-01T06:07:50.403Z,51.44
2023-02-01T06:10:20.963Z,51.43
2023-02-01T06:12:50.002Z,51.36
2023-02-01T06:15:18.338Z,51.28
2023-02-01T06:17:47.803Z,51.40
2023-02-01T06:20:16.751Z,51.45
2023-02-01T06:22:45.407Z,51.52
2023-02-01T06:25:14.424Z,51.66
2023-02-01T06:27:44.168Z,51.71
2023-02-01T06:30:13.033Z,51.87
2023-02-01T06:32:42.033Z,52.06
2023-02-01T06:35:11.534Z,52.14
2023-02-01T06:37:39.743Z,52.20
2023-02-01T06:40:08.657Z,52.24
2023-02-01T06:42:37.006Z,52.26
2023-02-01T06:45:05.611Z,52.39
2023-02-01T06:47:37.502Z,52.41
2023-02-01T06:50:06.199Z,52.45
2023-02-01T06:52:34.406Z,52.60
2023-02-01T06:55:03.049Z,52.65
2023-02-01T06:57:33.317Z,52.70
2023-02-01T07:00:07.736Z,52.89
2023-02-01T07:02:36.178Z,52.80
2023-02-01T07:05:05.219Z,52.83
2023-02-01T07:07:33.944Z,52.81
2023-02-01T07:10:03.405Z,52.85
2023-02-01T07:12:32.056Z,52.77
2023-02-01T07:15:00.855Z,52.74
2023-02-01T07:17:30.269Z,52.69
2023-02-01T07:19:59.426Z,52.65
2023-02-01T07:22:28.650Z,52.64
2023-02-01T07:24:57.162Z,52.40
2023-02-01T07:27:25.846Z,52.27
2023-02-01T07:29:55.012Z,52.06
2023-02-01T07:32:24.971Z,51.96
2023-02-01T07:34:54.584Z,51.91
2023-02-01T07:37:23.403Z,51.69
2023-02-01T07:39:52.784Z,51.48
2023-02-01T07:42:20.889Z,51.07
2023-02-01T07:44:49.176Z,49.14
2023-02-01T07:47:17.510Z,47.43
2023-02-01T07:49:45.702Z,45.40
2023-02-01T07:52:14.148Z,44.21
2023-02-01T07:54:42.629Z,42.36
2023-02-01T07:57:11.271Z,39.30
2023-02-01T07:59:40.676Z,36.97
2023-02-01T08:02:10.996Z,33.99
2023-02-01T08:04:39.356Z,30.79
2023-02-01T08:07:08.637Z,28.41
2023-02-01T08:09:37.968Z,26.58
2023-02-01T08:12:07.055Z,24.91
2023-02-01T08:14:35.630Z,23.38
2023-02-01T08:17:05.016Z,22.25
2023-02-01T08:19:33.713Z,21.47
2023-02-01T08:22:02.051Z,21.06
2023-02-01T08:24:30.854Z,20.91
2023-02-01T08:27:03.562Z,20.72
2023-02-01T08:29:31.747Z,20.23
2023-02-01T08:31:59.959Z,19.49
2023-02-01T08:34:30.466Z,18.73
2023-02-01T08:36:59.333Z,18.07
2023-02-01T08:39:28.082Z,17.29
2023-02-01T08:41:56.940Z,16.75
2023-02-01T08:44:25.715Z,16.31
2023-02-01T08:46:54.576Z,16.06
2023-02-01T08:49:24.371Z,15.52
2023-02-01T08:51:56.518Z,14.99
2023-02-01T08:54:26.583Z,14.55
2023-02-01T08:56:55.894Z,14.26
2023-02-01T08:59:27.381Z,13.85
2023-02-01T09:01:57.948Z,13.56
2023-02-01T09:04:26.816Z,13.26
2023-02-01T09:06:55.034Z,13.24
2023-02-01T09:09:24.428Z,13.01
2023-02-01T09:11:52.613Z,12.87
2023-02-01T09:14:20.909Z,12.67
2023-02-01T09:16:50.596Z,12.50
2023-02-01T09:19:26.407Z,12.35
2023-02-01T09:21:56.034Z,12.24
2023-02-01T09:24:24.980Z,12.06
2023-02-01T09:26:53.662Z,11.93
2023-02-01T09:29:22.248Z,12.01
2023-02-01T09:32:03.023Z,12.01
2023-02-01T09:34:33.875Z,11.85
2023-02-01T09:37:03.665Z,11.77
2023-02-01T09:39:32.347Z,11.86
2023-02-01T09:42:08.709Z,11.93
2023-02-01T09:44:58.511Z,11.99
2023-02-01T09:47:27.673Z,12.13
2023-02-01T09:50:05.963Z,12.50
2023-02-01T09:52:55.980Z,13.39
2023-02-01T09:55:47.662Z,13.89
2023-02-01T09:58:26.276Z,15.38
2023-02-01T10:01:00.357Z,16.25
2023-02-01T10:03:33.711Z,17.47
2023-02-01T10:06:13.574Z,17.83
2023-02-01T10:09:16.944Z,17.92
2023-02-01T10:12:06.572Z,18.64
2023-02-01T10:15:11.024Z,18.58
2023-02-01T10:17:59.064Z,18.55
2023-02-01T10:21:24.788Z,18.77
2023-02-01T10:24:30.265Z,19.04
2023-02-01T10:27:03.035Z,19.01
2023-02-01T10:29:41.193Z,19.15
2023-02-01T10:32:20.937Z,19.15
2023-02-01T10:34:59.108Z,18.91
2023-02-01T10:37:34.331Z,19.01
2023-02-01T10:40:18.620Z,19.34
2023-02-01T10:42:47.618Z,19.38
2023-02-01T10:45:21.353Z,19.14
2023-02-01T10:47:53.268Z,19.20
2023-02-01T10:50:45.402Z,19.16
2023-02-01T10:54:12.650Z,19.02
2023-02-01T10:56:40.995Z,19.65
2023-02-01T10:59:20.181Z,19.89
2023-02-01T11:01:59.800Z,20.05
2023-02-01T11:04:35.996Z,20.30
2023-02-01T11:07:26.694Z,20.28
2023-02-01T11:09:56.709Z,20.41
2023-02-01T11:12:31.123Z,20.83
2023-02-01T11:15:21.565Z,20.77
2023-02-01T11:17:52.942Z,20.30
2023-02-01T11:20:32.782Z,20.38
2023-02-01T11:23:03.425Z,20.84
2023-02-01T11:25:37.860Z,20.89
2023-02-01T11:28:06.981Z,20.61
2023-02-01T11:30:42.226Z,21.36
2023-02-01T11:33:17.644Z,21.94
2023-02-01T11:35:48.626Z,21.75
2023-02-01T11:38:34.861Z,21.76
2023-02-01T11:41:18.928Z,22.06
2023-02-01T11:43:53.286Z,21.97
2023-02-01T11:46:26.286Z,21.68
2023-02-01T11:48:58.050Z,21.51
2023-02-01T11:51:52.465Z,21.51
2023-02-01T11:54:53.581Z,21.49
2023-02-01T11:57:28.482Z,21.61
2023-02-01T12:00:15.598Z,22.02
2023-02-01T12:02:56.747Z,22.26
2023-02-01T12:05:46.850Z,22.32
2023-02-01T12:09:01.988Z,23.52
2023-02-01T12:12:10.944Z,25.25
2023-02-01T12:14:52.421Z,27.07
2023-02-01T12:17:50.697Z,28.79
2023-02-01T12:20:39.389Z,30.89
2023-02-01T12:23:16.634Z,32.83
2023-02-01T12:26:00.147Z,34.69
2023-02-01T12:28:31.378Z,36.62
2023-02-01T12:31:34.012Z,37.63
2023-02-01T12:34:23.931Z,39.55
2023-02-01T12:37:13.713Z,39.82
2023-02-01T12:40:06.284Z,41.50
2023-02-01T12:42:51.411Z,42.61
2023-02-01T12:45:33.863Z,43.25
2023-02-01T12:48:29.695Z,43.74
2023-02-01T12:51:10.020Z,44.26
2023-02-01T12:53:53.973Z,44.58
2023-02-01T12:56:36.706Z,45.74
2023-02-01T12:59:12.471Z,46.92
2023-02-01T13:01:54.367Z,47.47
2023-02-01T13:04:44.058Z,47.05
2023-02-01T13:07:23.753Z,47.64
2023-02-01T13:10:13.321Z,47.95
2023-02-01T13:12:51.568Z,47.97
2023-02-01T13:15:42.013Z,48.30
2023-02-01T13:18:23.999Z,48.75
2023-02-01T13:20:59.030Z,48.60
2023-02-01T13:23:31.562Z,47.83
2023-02-01T13:26:00.422Z,48.07
2023-02-01T13:28:44.213Z,48.07
2023-02-01T13:31:33.327Z,48.33
2023-02-01T13:34:31.003Z,49.15
2023-02-01T13:37:43.752Z,49.98
2023-02-01T13:40:30.921Z,50.12
2023-02-01T13:43:13.000Z,50.30
2023-02-01T13:45:49.346Z,49.95
2023-02-01T13:48:24.169Z,50.55
2023-02-01T13:50:59.309Z,50.87
2023-02-01T13:53:36.003Z,51.11
2023-02-01T13:56:21.385Z,51.48
2023-02-01T13:58:51.158Z,51.63
2023-02-01T14:01:39.774Z,51.76
2023-02-01T14:05:01.484Z,51.86
2023-02-01T14:07:29.971Z,51.70
2023-02-01T14:09:58.907Z,51.43
2023-02-01T14:12:49.629Z,51.98
2023-02-01T14:15:22.855Z,52.29
2023-02-01T14:17:53.081Z,52.90
2023-02-01T14:20:41.441Z,52.83
2023-02-01T14:23:22.287Z,53.50
2023-02-01T14:26:04.309Z,53.62
2023-02-01T14:28:33.453Z,53.34
2023-02-01T14:31:04.625Z,53.40
2023-02-01T14:33:33.056Z,52.97
2023-02-01T14:36:07.198Z,52.93
2023-02-01T14:38:38.555Z,52.75
2023-02-01T14:41:30.027Z,52.72
2023-02-01T14:44:25.194Z,53.09
2023-02-01T14:47:22.032Z,53.58
2023-02-01T14:50:19.967Z,54.47
2023-02-01T14:53:03.415Z,55.10
2023-02-01T14:55:40.060Z,55.31
2023-02-01T14:58:31.323Z,55.60
2023-02-01T15:01:03.483Z,56.01
2023-02-01T15:03:51.807Z,56.15
2023-02-01T15:06:33.978Z,56.12
2023-02-01T15:09:15.827Z,55.91
2023-02-01T15:11:58.013Z,56.59
2023-02-01T15:14:28.773Z,57.22
2023-02-01T15:16:57.577Z,57.95
2023-02-01T15:19:28.495Z,57.76
2023-02-01T15:21:58.979Z,58.16
2023-02-01T15:24:30.142Z,58.21
2023-02-01T15:27:05.746Z,57.93
2023-02-01T15:29:34.780Z,58.33
2023-02-01T15:32:03.418Z,58.94
2023-02-01T15:34:51.525Z,59.09
2023-02-01T15:37:22.785Z,59.14
2023-02-01T15:40:05.067Z,58.78
2023-02-01T15:42:33.618Z,59.37
2023-02-01T15:45:02.006Z,59.05
2023-02-01T15:47:33.008Z,59.54
2023-02-01T15:50:02.507Z,60.12
2023-02-01T15:52:38.481Z,60.21
2023-02-01T15:55:18.768Z,60.41
2023-02-01T15:57:47.863Z,60.72
2023-02-01T16:00:29.520Z,60.49
2023-02-01T16:03:07.272Z,60.78
2023-02-01T16:05:37.551Z,60.95
2023-02-01T16:08:18.534Z,61.12
2023-02-01T16:10:49.113Z,61.82
2023-02-01T16:13:19.531Z,61.60
2023-02-01T16:15:48.482Z,62.03
2023-02-01T16:18:18.944Z,62.27
2023-02-01T16:20:49.348Z,61.97
2023-02-01T16:23:17.995Z,62.08
2023-02-01T16:25:46.446Z,61.89
2023-02-01T16:28:14.703Z,61.92
2023-02-01T16:30:43.100Z,62.17
2023-02-01T16:33:19.668Z,62.56
2023-02-01T16:35:47.950Z,62.69
2023-02-01T16:38:20.452Z,62.96
2023-02-01T16:40:50.452Z,63.67
2023-02-01T16:43:24.824Z,63.99
2023-02-01T16:45:55.257Z,64.16
2023-02-01T16:48:27.707Z,64.77
2023-02-01T16:50:59.368Z,64.98
2023-02-01T16:53:30.955Z,65.29
2023-02-01T16:56:00.485Z,65.74
2023-02-01T16:58:28.729Z,66.21
2023-02-01T17:00:57.150Z,66.60
2023-02-01T17:03:26.127Z,66.96
2023-02-01T17:05:57.252Z,67.13
2023-02-01T17:08:50.985Z,66.94
2023-02-01T17:11:20.041Z,65.98
2023-02-01T17:13:49.275Z,66.87
2023-02-01T17:16:30.896Z,67.36
2023-02-01T17:19:12.920Z,67.70
2023-02-01T17:21:45.704Z,67.50
2023-02-01T17:24:16.173Z,67.45
2023-02-01T17:26:45.951Z,68.40
2023-02-01T17:29:14.730Z,68.70
2023-02-01T17:31:47.084Z,68.59
2023-02-01T17:34:16.373Z,68.97
2023-02-01T17:36:46.583Z,68.77
2023-02-01T17:39:16.794Z,69.11
2023-02-01T17:41:45.031Z,69.23
2023-02-01T17:44:16.775Z,69.16
2023-02-01T17:46:45.187Z,68.97
2023-02-01T17:49:13.500Z,68.86
2023-02-01T17:51:41.765Z,69.12
2023-02-01T17:54:13.680Z,69.34
2023-02-01T17:56:42.521Z,69.07
2023-02-01T17:59:12.873Z,68.83
2023-02-01T18:01:42.558Z,68.99
2023-02-01T18:04:18.923Z,68.77
2023-02-01T18:06:47.187Z,68.53
2023-02-01T18:09:15.430Z,68.54
2023-02-01T18:11:44.519Z,68.56
2023-02-01T18:14:13.824Z,68.47
2023-02-01T18:16:42.129Z,68.70
2023-02-01T18:19:10.453Z,68.73
2023-02-01T18:21:42.239Z,68.61
2023-02-01T18:24:15.419Z,68.73
2023-02-01T18:26:44.888Z,68.91
2023-02-01T18:29:13.424Z,68.91
2023-02-01T18:31:47.694Z,68.93
2023-02-01T18:34:16.260Z,69.15
2023-02-01T18:36:44.470Z,69.30
2023-02-01T18:39:13.287Z,69.14
2023-02-01T18:41:41.467Z,69.13
2023-02-01T18:44:16.747Z,69.04
2023-02-01T18:46:46.066Z,69.13
2023-02-01T18:49:14.939Z,69.11
2023-02-01T18:51:43.256Z,69.21
2023-02-01T18:54:11.730Z,69.14
2023-02-01T18:56:40.107Z,69.20
2023-02-01T18:59:08.673Z,69.29
2023-02-01T19:01:38.052Z,69.45
2023-02-01T19:04:11.861Z,69.20
2023-02-01T19:06:54.665Z,69.12
2023-02-01T19:09:23.153Z,69.12
2023-02-01T19:11:51.556Z,68.78
2023-02-01T19:14:20.032Z,68.58
2023-02-01T19:16:48.319Z,68.68
2023-02-01T19:19:16.384Z,68.86
2023-02-01T19:21:45.123Z,68.91
2023-02-01T19:24:13.933Z,69.38
2023-02-01T19:26:42.655Z,69.61
2023-02-01T19:29:11.344Z,69.43
2023-02-01T19:31:39.608Z,69.43
2023-02-01T19:34:07.929Z,69.48
2023-02-01T19:36:36.421Z,69.15
2023-02-01T19:39:04.735Z,68.84
2023-02-01T19:41:33.108Z,69.14
2023-02-01T19:44:01.559Z,69.19
2023-02-01T19:46:30.365Z,69.05
2023-02-01T19:48:58.775Z,68.96
2023-02-01T19:51:27.134Z,69.03
2023-02-01T19:53:55.429Z,69.17
2023-02-01T19:56:23.601Z,68.98
2023-02-01T19:58:52.592Z,68.72
2023-02-01T20:01:20.684Z,68.83
2023-02-01T20:03:49.021Z,69.20
2023-02-01T20:06:18.921Z,69.27
2023-02-01T20:08:48.537Z,69.36
2023-02-01T20:11:16.998Z,69.53
2023-02-01T20:13:46.100Z,69.44
2023-02-01T20:16:14.442Z,69.21
2023-02-01T20:18:42.703Z,69.29
2023-02-01T20:21:11.057Z,69.33
2023-02-01T20:23:39.957Z,69.43
2023-02-01T20:26:11.511Z,69.47
2023-02-01T20:28:40.991Z,69.46
2023-02-01T20:31:10.032Z,69.26
2023-02-01T20:33:38.771Z,69.05
2023-02-01T20:36:07.409Z,69.01
2023-02-01T20:38:35.753Z,69.40
2023-02-01T20:41:06.007Z,69.32
2023-02-01T20:43:35.080Z,69.36
2023-02-01T20:46:03.896Z,69.35
2023-02-01T20:48:32.697Z,69.86
2023-02-01T20:51:01.171Z,69.53
2023-02-01T20:53:31.018Z,69.61
2023-02-01T20:55:59.651Z,69.98
2023-02-01T20:58:28.230Z,69.67
2023-02-01T21:00:56.832Z,69.97
2023-02-01T21:03:26.598Z,69.75
2023-02-01T21:05:57.877Z,69.80
2023-02-01T21:08:28.297Z,69.85
2023-02-01T21:11:06.271Z,69.93
2023-02-01T21:13:36.948Z,69.91
2023-02-01T21:16:10.031Z,69.72
2023-02-01T21:18:38.989Z,69.89
2023-02-01T21:21:10.826Z,69.61
2023-02-01T21:23:40.780Z,69.64
2023-02-01T21:26:09.541Z,69.54
2023-02-01T21:28:37.839Z,69.51
2023-02-01T21:31:06.462Z,69.29
2023-02-01T21:33:34.718Z,69.31
2023-02-01T21:36:03.011Z,69.08
2023-02-01T21:38:31.330Z,69.07
2023-02-01T21:40:59.764Z,68.98
2023-02-01T21:43:28.023Z,68.91
2023-02-01T21:45:56.434Z,68.89
2023-02-01T21:48:24.690Z,68.78
2023-02-01T21:50:53.012Z,68.70
2023-02-01T21:53:22.371Z,68.62
2023-02-01T21:55:51.286Z,68.50
2023-02-01T21:58:19.550Z,68.43
2023-02-01T22:00:47.759Z,68.40
2023-02-01T22:03:16.001Z,68.34
2023-02-01T22:05:50.554Z,68.26
2023-02-01T22:08:18.732Z,68.29
2023-02-01T22:10:47.543Z,68.34
2023-02-01T22:13:15.864Z,68.31
2023-02-01T22:15:44.026Z,68.29
2023-02-01T22:18:12.338Z,68.22
2023-02-01T22:20:41.093Z,68.24
2023-02-01T22:23:09.453Z,68.22
2023-02-01T22:25:37.762Z,68.22
2023-02-01T22:28:31.881Z,68.18
2023-02-01T22:30:55.981Z,68.10
2023-02-01T22:33:24.886Z,68.03
2023-02-01T22:35:53.110Z,67.99
2023-02-01T22:38:21.615Z,67.98
2023-02-01T22:41:01.049Z,67.98
2023-02-01T22:43:29.657Z,68.01
2023-02-01T22:46:02.660Z,68.09
2023-02-01T22:48:35.518Z,68.07
2023-02-01T22:51:04.955Z,68.04
2023-02-01T22:53:35.082Z,68.14
2023-02-01T22:56:05.744Z,68.19
2023-02-01T22:58:34.525Z,68.14
2023-02-01T23:01:10.303Z,68.06
2023-02-01T23:03:40.286Z,68.00
2023-02-01T23:06:09.618Z,67.71
2023-02-01T23:08:38.617Z,67.95
2023-02-01T23:11:09.545Z,67.95
2023-02-01T23:13:38.574Z,67.90
2023-02-01T23:16:10.190Z,67.98
2023-02-01T23:18:40.166Z,68.05
2023-02-01T23:21:17.818Z,68.09
2023-02-01T23:23:51.822Z,68.21
2023-02-01T23:26:21.158Z,68.30
2023-02-01T23:28:49.848Z,68.46
2023-02-01T23:31:18.337Z,68.52
2023-02-01T23:33:48.638Z,68.52
2023-02-01T23:36:17.527Z,68.74
2023-02-01T23:38:47.311Z,68.85
2023-02-01T23:41:18.221Z,68.85
2023-02-01T23:43:46.923Z,68.87
2023-02-01T23:46:16.683Z,68.98
2023-02-01T23:48:46.232Z,69.04
2023-02-01T23:51:16.272Z,69.04
2023-02-01T23:53:45.033Z,69.14
2023-02-01T23:56:38.341Z,69.21
2023-02-01T23:59:11.949Z,69.16
